Cobb, Georgia
Current Conditions -  °F | °C
As of 5:15 PM on Monday 20 Oct 2014 (Local Time) from KCKF Reporting Station
Scattered Clouds Scattered Clouds  
Wind Chill: 77°   Ceiling: Unl
Heat Index: 79°   Visibility: 10mi
Dew Point: 56°   Wind: 8mph
Humidity: 48%   Direction: 280°W
Pressure: 29.99"   Gusts: NA
Location:  31.96°N, 83.99°W
Report Text: KCKF 202115Z AUTO 28007KT 10SM SCT046 25/13 A2999 RMK AO2 T02500132
Loading
Personal Weather Stations






























Interactive Weather Map
Tropical Storm Tracking
New forecast layout! Learn more

10-Day Weather Forecast

Advertisements
Track Severe Weather on mobile